Time;durP1;ratioP1;P1;durP2;ratioP2;P2;SDS_P1;SDS_P2;PMS_P1;PMS_P2;Temp;Humidity;BMP_temperature;BMP_pressure;BME280_temperature;BME280_humidity;BME280_pressure;Samples;Min_cycle;Max_cycle;Signal;HPM_P1;HPM_P2
2023/12/26 00:01:27;;;;;;;19.92;3.45;;;;;;;9.07;100.00;100543.78;5034987;28;20033;-73
2023/12/26 00:03:52;;;;;;;21.88;4.15;;;;;;;9.11;100.00;100555.97;5017678;28;20045;-73
2023/12/26 00:06:21;;;;;;;28.02;4.20;;;;;;;9.10;100.00;100548.75;5033250;28;20036;-73
2023/12/26 00:08:47;;;;;;;18.17;2.88;;;;;;;9.08;100.00;100553.78;5033595;28;20615;-73
2023/12/26 00:11:13;;;;;;;23.80;3.45;;;;;;;9.09;100.00;100547.13;5029999;28;20116;-73
2023/12/26 00:13:38;;;;;;;20.35;3.83;;;;;;;9.11;100.00;100560.66;5013307;28;20026;-73
2023/12/26 00:16:04;;;;;;;19.83;3.72;;;;;;;9.10;100.00;100547.94;5029457;28;20089;-73
2023/12/26 00:18:29;;;;;;;15.50;3.13;;;;;;;9.09;100.00;100555.41;5053707;28;20097;-73
2023/12/26 00:20:55;;;;;;;25.40;4.00;;;;;;;9.09;100.00;100552.66;5059263;28;20042;-73
2023/12/26 00:23:21;;;;;;;22.10;3.60;;;;;;;9.10;100.00;100551.53;5028447;28;20088;-73
2023/12/26 00:25:47;;;;;;;23.88;4.95;;;;;;;9.09;100.00;100558.19;5031805;28;20390;-73
2023/12/26 00:28:14;;;;;;;17.13;3.30;;;;;;;9.10;100.00;100554.31;5014008;28;20092;-73
2023/12/26 00:30:40;;;;;;;19.30;3.40;;;;;;;9.08;100.00;100556.53;5015255;28;20033;-73
2023/12/26 00:33:06;;;;;;;14.40;3.45;;;;;;;9.06;100.00;100553.22;5032839;28;20083;-73
2023/12/26 00:35:31;;;;;;;18.33;3.53;;;;;;;9.07;100.00;100548.50;5029365;28;20038;-73
2023/12/26 00:37:58;;;;;;;16.98;3.42;;;;;;;9.04;100.00;100546.31;5027173;28;20037;-73
2023/12/26 00:40:24;;;;;;;21.30;3.80;;;;;;;9.05;100.00;100547.94;5029112;28;20453;-73
2023/12/26 00:42:49;;;;;;;17.55;3.38;;;;;;;9.06;100.00;100553.22;5029497;28;20037;-74
2023/12/26 00:45:15;;;;;;;18.65;3.30;;;;;;;9.06;100.00;100555.16;5030446;28;20029;-73
2023/12/26 00:47:40;;;;;;;18.33;3.33;;;;;;;9.04;100.00;100555.44;5026057;28;20034;-73
2023/12/26 00:50:11;;;;;;;19.08;3.25;;;;;;;9.05;100.00;100556.25;5035223;28;20037;-73
2023/12/26 00:52:37;;;;;;;17.58;3.53;;;;;;;9.02;100.00;100545.75;5038183;28;20053;-73
2023/12/26 00:55:03;;;;;;;16.77;3.25;;;;;;;9.02;100.00;100546.56;5034795;28;20108;-73
2023/12/26 00:57:28;;;;;;;18.00;3.25;;;;;;;8.99;100.00;100538.00;5022644;28;20033;-73
2023/12/26 00:59:54;;;;;;;20.35;3.58;;;;;;;8.97;100.00;100545.75;5037022;28;20087;-73
2023/12/26 01:02:21;;;;;;;20.98;3.38;;;;;;;8.92;100.00;100543.84;5032290;28;20030;-73
2023/12/26 01:04:47;;;;;;;13.73;3.35;;;;;;;8.90;100.00;100544.13;5031978;28;20521;-73
2023/12/26 01:07:12;;;;;;;17.45;3.63;;;;;;;8.87;100.00;100543.88;5004947;28;20090;-73
2023/12/26 01:09:37;;;;;;;20.23;3.33;;;;;;;8.83;100.00;100548.28;5028852;28;20041;-73
2023/12/26 01:12:03;;;;;;;19.10;3.38;;;;;;;8.84;100.00;100544.44;5028596;28;20034;-72
2023/12/26 01:14:29;;;;;;;22.13;3.33;;;;;;;8.80;100.00;100540.56;5056479;28;20030;-73
2023/12/26 01:16:54;;;;;;;18.25;3.38;;;;;;;8.79;100.00;100541.69;5026592;28;20044;-73
2023/12/26 01:19:20;;;;;;;20.27;3.30;;;;;;;8.76;100.00;100543.06;5028322;28;20046;-73
2023/12/26 01:21:45;;;;;;;20.23;3.75;;;;;;;8.75;100.00;100538.66;5024832;28;20040;-73
2023/12/26 01:24:11;;;;;;;18.92;3.90;;;;;;;8.73;100.00;100547.22;5026638;28;20033;-73
2023/12/26 01:26:36;;;;;;;15.10;2.85;;;;;;;8.70;100.00;100541.44;5029960;28;20037;-73
2023/12/26 01:29:04;;;;;;;15.20;3.00;;;;;;;8.67;100.00;100534.50;5007119;28;20030;-73
2023/12/26 01:31:29;;;;;;;16.05;3.45;;;;;;;8.67;100.00;100530.91;5025637;28;20041;-73
2023/12/26 01:33:55;;;;;;;23.42;4.10;;;;;;;8.69;100.00;100528.69;5057471;28;20034;-73
2023/12/26 01:36:20;;;;;;;17.20;3.40;;;;;;;8.64;100.00;100528.72;5031063;28;20030;-73
2023/12/26 01:38:47;;;;;;;16.58;3.45;;;;;;;8.63;100.00;100530.63;5027701;28;20450;-73
2023/12/26 01:41:12;;;;;;;21.38;3.92;;;;;;;8.58;100.00;100535.34;5059986;28;20028;-73
2023/12/26 01:43:37;;;;;;;17.15;3.47;;;;;;;8.62;100.00;100542.00;5025801;28;20030;-73
2023/12/26 01:46:03;;;;;;;19.77;3.10;;;;;;;8.65;100.00;100542.25;5028965;28;20142;-73
2023/12/26 01:48:29;;;;;;;17.80;2.85;;;;;;;8.65;100.00;100542.25;5026060;28;20040;-73
2023/12/26 01:50:54;;;;;;;18.98;3.55;;;;;;;8.65;100.00;100550.56;5009244;28;20045;-73
2023/12/26 01:53:20;;;;;;;19.95;2.83;;;;;;;8.65;100.00;100545.03;5024153;28;20030;-73
2023/12/26 01:55:46;;;;;;;22.25;3.60;;;;;;;8.66;100.00;100549.47;5025902;28;20108;-73
2023/12/26 01:58:11;;;;;;;22.15;3.15;;;;;;;8.68;100.00;100547.22;5033980;28;20131;-73
2023/12/26 02:00:37;;;;;;;20.73;3.75;;;;;;;8.68;100.00;100546.41;5036052;28;20398;-73
2023/12/26 02:03:03;;;;;;;14.48;2.80;;;;;;;8.72;100.00;100544.75;5037109;28;20036;-73
2023/12/26 02:05:28;;;;;;;14.25;3.75;;;;;;;8.72;100.00;100548.34;5039185;28;20033;-72
2023/12/26 02:07:54;;;;;;;17.48;3.25;;;;;;;8.72;100.00;100545.56;5037594;28;20029;-73
2023/12/26 02:10:19;;;;;;;16.73;3.63;;;;;;;8.75;100.00;100540.56;5035514;28;20029;-73
2023/12/26 02:12:45;;;;;;;19.00;3.35;;;;;;;8.75;100.00;100538.66;5035952;28;20022;-73
2023/12/26 02:15:13;;;;;;;17.63;3.25;;;;;;;8.76;100.00;100547.78;5035467;28;20059;-73
2023/12/26 02:17:38;;;;;;;13.77;2.92;;;;;;;8.77;100.00;100543.88;5017189;28;20037;-73
2023/12/26 02:20:04;;;;;;;20.58;3.05;;;;;;;8.75;100.00;100535.88;5018886;28;20410;-73
2023/12/26 02:22:30;;;;;;;16.65;3.17;;;;;;;8.76;100.00;100547.78;5035125;28;20107;-73
2023/12/26 02:24:55;;;;;;;15.93;3.28;;;;;;;8.75;100.00;100541.41;5035132;28;20021;-73
2023/12/26 02:27:24;;;;;;;21.05;3.95;;;;;;;8.76;100.00;100545.84;5036667;28;20037;-73
2023/12/26 02:29:50;;;;;;;15.93;2.97;;;;;;;8.74;100.00;100545.28;5019158;28;20390;-73
2023/12/26 02:32:21;;;;;;;19.02;3.40;;;;;;;8.72;100.00;100548.34;5035310;28;20037;-73
2023/12/26 02:34:54;;;;;;;20.38;3.92;;;;;;;8.71;100.00;100552.19;5036717;28;20044;-73
2023/12/26 02:37:20;;;;;;;19.30;2.90;;;;;;;8.71;100.00;100560.50;5033636;28;20037;-73
2023/12/26 02:39:45;;;;;;;17.95;3.13;;;;;;;8.73;100.00;100568.56;5034999;28;20040;-72
2023/12/26 02:42:11;;;;;;;17.77;3.13;;;;;;;8.72;100.00;100570.50;5035897;28;20025;-73
2023/12/26 02:44:37;;;;;;;15.52;3.35;;;;;;;8.70;100.00;100582.97;5035189;28;20040;-73
2023/12/26 02:47:03;;;;;;;21.58;3.20;;;;;;;8.69;100.00;100571.06;5035111;28;20478;-73
2023/12/26 02:49:28;;;;;;;15.07;2.97;;;;;;;8.70;100.00;100575.47;5036316;28;20501;-73
2023/12/26 02:51:54;;;;;;;16.23;3.15;;;;;;;8.69;100.00;100568.28;5036195;28;20034;-73
2023/12/26 02:54:19;;;;;;;19.60;3.40;;;;;;;8.71;100.00;100568.81;5036000;28;20028;-73
2023/12/26 02:56:46;;;;;;;19.92;3.38;;;;;;;8.73;100.00;100565.78;5036120;28;20033;-73
2023/12/26 02:59:11;;;;;;;14.82;2.97;;;;;;;8.75;100.00;100569.09;5034776;28;20052;-73
2023/12/26 03:01:37;;;;;;;19.88;3.10;;;;;;;8.73;100.00;100563.84;5034755;28;20026;-73
2023/12/26 03:04:02;;;;;;;19.23;3.65;;;;;;;8.75;100.00;100559.94;5036013;28;20034;-73
2023/12/26 03:06:28;;;;;;;23.00;8.65;;;;;;;8.76;100.00;100562.44;5039615;28;20026;-73
2023/12/26 03:08:53;;;;;;;21.75;5.22;;;;;;;8.76;100.00;100567.16;5037711;28;20025;-72
2023/12/26 03:11:19;;;;;;;21.33;4.75;;;;;;;8.74;100.00;100564.66;5035751;28;20029;-73
2023/12/26 03:13:44;;;;;;;17.40;4.93;;;;;;;8.76;100.00;100553.31;5034643;28;20048;-73
2023/12/26 03:16:09;;;;;;;19.92;3.97;;;;;;;8.77;100.00;100554.97;5030715;28;20032;-73
2023/12/26 03:18:35;;;;;;;24.88;4.43;;;;;;;8.75;100.00;100551.63;5035809;28;20045;-73
2023/12/26 03:21:00;;;;;;;19.20;3.80;;;;;;;8.77;100.00;100564.09;5035636;28;20044;-73
2023/12/26 03:23:26;;;;;;;21.52;4.53;;;;;;;8.76;100.00;100559.69;5035512;28;20033;-72
2023/12/26 03:25:51;;;;;;;20.02;4.22;;;;;;;8.76;100.00;100565.22;5035657;28;20083;-73
2023/12/26 03:28:17;;;;;;;25.10;4.57;;;;;;;8.75;100.00;100562.72;5018170;28;20032;-73
2023/12/26 03:30:42;;;;;;;19.95;3.85;;;;;;;8.73;100.00;100563.00;5034426;28;20474;-73
2023/12/26 03:33:08;;;;;;;17.95;3.72;;;;;;;8.75;100.00;100562.72;5033213;28;20156;-74
2023/12/26 03:35:33;;;;;;;14.95;2.88;;;;;;;8.74;100.00;100561.88;5033655;28;20029;-73
2023/12/26 03:37:59;;;;;;;15.68;3.10;;;;;;;8.73;100.00;100565.78;5035390;28;20033;-73
2023/12/26 03:40:24;;;;;;;16.85;3.60;;;;;;;8.73;100.00;100563.00;5035220;28;20026;-72
2023/12/26 03:42:50;;;;;;;27.40;3.33;;;;;;;8.72;100.00;100556.66;5035387;28;20025;-73
2023/12/26 03:45:15;;;;;;;19.65;3.80;;;;;;;8.71;100.00;100563.28;5035279;28;20033;-73
2023/12/26 03:47:41;;;;;;;18.77;3.33;;;;;;;8.72;100.00;100564.97;5035517;28;20034;-73
2023/12/26 03:50:07;;;;;;;20.40;3.80;;;;;;;8.73;100.00;100563.84;5034023;28;20028;-73
2023/12/26 03:52:34;;;;;;;20.80;3.33;;;;;;;8.73;100.00;100563.84;5035274;28;20050;-73
2023/12/26 03:54:59;;;;;;;21.17;3.03;;;;;;;8.73;100.00;100566.59;5034447;28;20030;-73
2023/12/26 03:57:24;;;;;;;20.25;3.35;;;;;;;8.74;100.00;100559.13;5028494;28;20034;-73
2023/12/26 03:59:50;;;;;;;16.10;3.05;;;;;;;8.76;100.00;100559.69;5035210;28;20034;-72
2023/12/26 04:02:15;;;;;;;18.55;3.53;;;;;;;8.73;100.00;100561.06;5035098;28;20026;-73
2023/12/26 04:04:41;;;;;;;18.58;3.83;;;;;;;8.77;100.00;100572.41;5034049;28;20149;-73
2023/12/26 04:07:06;;;;;;;18.38;3.63;;;;;;;8.77;100.00;100571.59;5039742;28;20393;-73
2023/12/26 04:09:32;;;;;;;17.77;3.58;;;;;;;8.76;100.00;100579.06;5033215;28;20034;-73
2023/12/26 04:11:57;;;;;;;17.90;3.33;;;;;;;8.77;100.00;100575.19;5035117;28;20037;-73
2023/12/26 04:14:25;;;;;;;18.88;3.30;;;;;;;8.79;100.00;100575.72;5033699;28;20060;-73
2023/12/26 04:16:51;;;;;;;23.35;3.33;;;;;;;8.78;100.00;100576.03;5031461;28;20025;-73
2023/12/26 04:19:25;;;;;;;20.13;3.25;;;;;;;8.76;100.00;100579.06;5034851;28;20065;-73
2023/12/26 04:21:50;;;;;;;16.83;3.15;;;;;;;8.78;100.00;100574.09;5035127;28;20037;-73
2023/12/26 04:24:16;;;;;;;11.30;2.92;;;;;;;8.78;100.00;100568.53;5034703;28;20740;-73
2023/12/26 04:26:41;;;;;;;18.45;3.28;;;;;;;8.77;100.00;100572.41;5035254;28;20041;-73
2023/12/26 04:29:07;;;;;;;19.20;3.33;;;;;;;8.76;100.00;100570.75;5034966;28;20033;-73
2023/12/26 04:31:32;;;;;;;14.77;3.30;;;;;;;8.81;100.00;100583.78;5033955;28;20034;-73
2023/12/26 04:33:58;;;;;;;17.30;2.88;;;;;;;8.81;100.00;100569.94;5033989;28;20029;-73
2023/12/26 04:36:23;;;;;;;18.27;3.72;;;;;;;8.77;100.00;100569.63;5033825;28;20390;-73
2023/12/26 04:38:49;;;;;;;22.77;3.85;;;;;;;8.79;100.00;100561.06;5034602;28;20036;-73
2023/12/26 04:41:14;;;;;;;12.02;3.20;;;;;;;8.77;100.00;100561.31;5034839;28;20032;-74
2023/12/26 04:43:39;;;;;;;19.67;4.03;;;;;;;8.76;100.00;100553.31;5034718;28;20034;-73
2023/12/26 04:46:05;;;;;;;16.58;3.30;;;;;;;8.76;100.00;100558.84;5033686;28;20413;-73
2023/12/26 04:48:30;;;;;;;18.40;3.20;;;;;;;8.73;100.00;100552.75;5033491;28;20091;-73
2023/12/26 04:50:56;;;;;;;22.80;3.33;;;;;;;8.73;100.00;100555.53;5034819;28;20033;-73
2023/12/26 04:53:24;;;;;;;19.20;3.08;;;;;;;8.70;100.00;100564.41;5033395;28;20533;-73
2023/12/26 04:55:50;;;;;;;21.00;4.28;;;;;;;8.64;100.00;100554.44;5034835;28;20033;-73
2023/12/26 04:58:15;;;;;;;16.58;3.50;;;;;;;8.65;100.00;100553.34;5033262;28;20095;-73
2023/12/26 05:00:41;;;;;;;18.85;3.80;;;;;;;8.61;100.00;100552.25;5034974;28;20025;-73
2023/12/26 05:03:07;;;;;;;16.92;3.30;;;;;;;8.62;100.00;100550.31;5034765;28;20367;-73
2023/12/26 05:05:32;;;;;;;19.35;3.17;;;;;;;8.58;100.00;100552.81;5039499;28;20040;-73
2023/12/26 05:07:57;;;;;;;20.38;3.38;;;;;;;8.55;100.00;100547.81;5040077;28;20029;-73
2023/12/26 05:10:23;;;;;;;19.95;3.35;;;;;;;8.55;100.00;100553.34;5036762;28;20059;-73
2023/12/26 05:12:51;;;;;;;20.13;3.45;;;;;;;8.54;100.00;100554.47;5038064;28;20026;-73
2023/12/26 05:15:16;;;;;;;19.48;3.65;;;;;;;8.54;100.00;100556.41;5034429;28;20032;-73
2023/12/26 05:17:41;;;;;;;17.23;3.25;;;;;;;8.53;100.00;100563.88;5036816;28;20030;-73
2023/12/26 05:20:07;;;;;;;22.92;3.20;;;;;;;8.53;100.00;100576.91;5037917;28;20123;-73
2023/12/26 05:22:33;;;;;;;18.17;3.40;;;;;;;8.54;100.00;100579.38;5037720;28;20112;-73
2023/12/26 05:24:58;;;;;;;18.55;3.72;;;;;;;8.55;100.00;100580.19;5037562;28;20056;-73
2023/12/26 05:27:24;;;;;;;21.00;3.80;;;;;;;8.55;100.00;100580.19;5037663;28;20057;-73
2023/12/26 05:29:49;;;;;;;17.05;3.33;;;;;;;8.55;100.00;100569.13;5037797;28;20025;-73
2023/12/26 05:32:15;;;;;;;20.45;3.90;;;;;;;8.51;100.00;100568.88;5037762;28;20029;-73
2023/12/26 05:34:45;;;;;;;18.25;3.42;;;;;;;8.54;100.00;100559.19;5036644;28;20037;-73
2023/12/26 05:37:10;;;;;;;20.88;3.35;;;;;;;8.55;100.00;100558.06;5018333;28;20106;-73
2023/12/26 05:39:35;;;;;;;24.23;3.45;;;;;;;8.56;100.00;100557.78;5037550;28;20029;-73
2023/12/26 05:42:03;;;;;;;16.65;2.92;;;;;;;8.57;100.00;100564.97;5036227;28;20030;-73
2023/12/26 05:44:28;;;;;;;20.02;3.78;;;;;;;8.60;100.00;100561.66;5037563;28;20030;-73
2023/12/26 05:46:54;;;;;;;20.65;3.53;;;;;;;8.60;100.00;100566.34;5037520;28;20048;-73
2023/12/26 05:49:19;;;;;;;18.33;2.83;;;;;;;8.61;100.00;100574.41;5037696;28;20025;-73
2023/12/26 05:51:44;;;;;;;16.15;3.22;;;;;;;8.64;100.00;100573.00;5036161;28;20033;-73
2023/12/26 05:54:10;;;;;;;17.88;3.35;;;;;;;8.62;100.00;100570.50;5037202;28;20497;-73
2023/12/26 05:56:35;;;;;;;13.68;3.03;;;;;;;8.63;100.00;100582.41;5037353;28;20033;-73
2023/12/26 05:59:01;;;;;;;21.35;3.55;;;;;;;8.66;100.00;100596.53;5034467;28;20394;-73
2023/12/26 06:01:26;;;;;;;19.50;3.35;;;;;;;8.67;100.00;100600.97;5037139;28;20037;-73
2023/12/26 06:03:52;;;;;;;16.77;3.30;;;;;;;8.69;100.00;100604.28;5037324;28;20040;-73
2023/12/26 06:06:19;;;;;;;20.65;3.13;;;;;;;8.70;100.00;100610.66;5035675;28;20029;-74
2023/12/26 06:08:45;;;;;;;14.82;2.63;;;;;;;8.70;100.00;100608.72;5037601;28;20326;-73
2023/12/26 06:11:10;;;;;;;17.80;3.15;;;;;;;8.70;100.00;100611.47;5037031;28;20074;-73
2023/12/26 06:13:36;;;;;;;18.48;3.53;;;;;;;8.71;100.00;100613.13;5037043;28;20029;-73
2023/12/26 06:16:02;;;;;;;15.90;2.78;;;;;;;8.73;100.00;100619.22;5032940;28;20390;-73
2023/12/26 06:18:27;;;;;;;16.02;3.50;;;;;;;8.75;100.00;100620.88;5036168;28;20044;-73
2023/12/26 06:20:53;;;;;;;15.93;2.83;;;;;;;8.75;100.00;100629.19;5036732;28;20518;-73
2023/12/26 06:23:18;;;;;;;11.23;2.63;;;;;;;8.76;100.00;100640.00;5036663;28;20033;-73
2023/12/26 06:25:44;;;;;;;13.68;2.72;;;;;;;8.76;100.00;100641.94;5036664;28;20036;-73
2023/12/26 06:28:10;;;;;;;18.42;3.70;;;;;;;8.80;100.00;100643.03;5034203;28;20116;-73
2023/12/26 06:30:35;;;;;;;18.50;3.45;;;;;;;8.80;100.00;100648.56;5034431;28;20037;-73
2023/12/26 06:33:01;;;;;;;11.70;3.05;;;;;;;8.80;100.00;100656.88;5035597;28;20036;-73
2023/12/26 06:35:26;;;;;;;12.90;2.90;;;;;;;8.82;100.00;100651.88;5036594;28;20040;-73
2023/12/26 06:37:52;;;;;;;19.33;3.20;;;;;;;8.82;100.00;100658.25;5036687;28;20484;-73
2023/12/26 06:40:17;;;;;;;20.13;3.20;;;;;;;8.82;100.00;100651.88;5035552;28;20025;-73
2023/12/26 06:42:43;;;;;;;20.02;2.95;;;;;;;8.82;100.00;100655.47;5031917;28;20099;-73
2023/12/26 06:45:08;;;;;;;14.48;2.80;;;;;;;8.87;100.00;100655.47;5036383;28;20025;-73
2023/12/26 06:47:34;;;;;;;20.30;2.97;;;;;;;8.84;100.00;100646.91;5036627;28;20090;-73
2023/12/26 06:49:59;;;;;;;15.23;2.47;;;;;;;8.87;100.00;100649.13;5035185;28;20033;-73
2023/12/26 06:52:25;;;;;;;15.00;3.17;;;;;;;8.87;100.00;100647.16;5018457;28;20108;-73
2023/12/26 06:54:50;;;;;;;18.25;2.90;;;;;;;8.87;100.00;100643.56;5035742;28;20466;-73
2023/12/26 06:57:16;;;;;;;14.88;2.95;;;;;;;8.85;100.00;100662.41;5034989;28;20402;-73
2023/12/26 06:59:46;;;;;;;21.75;2.83;;;;;;;8.88;100.00;100667.38;5036007;28;20029;-73
2023/12/26 07:02:12;;;;;;;19.70;3.05;;;;;;;8.87;100.00;100657.41;5034842;28;20123;-73
2023/12/26 07:04:37;;;;;;;16.67;2.83;;;;;;;8.88;100.00;100661.84;5016915;28;20026;-73
2023/12/26 07:07:03;;;;;;;19.63;3.28;;;;;;;8.88;100.00;100659.06;5042023;28;20028;-73
2023/12/26 07:09:28;;;;;;;15.93;2.67;;;;;;;8.89;100.00;100663.53;5033570;28;20026;-73
2023/12/26 07:11:54;;;;;;;19.13;3.15;;;;;;;8.89;100.00;100669.06;5036088;28;20032;-73
2023/12/26 07:14:19;;;;;;;13.75;2.78;;;;;;;8.89;100.00;100663.53;5034492;28;20037;-73
2023/12/26 07:16:45;;;;;;;14.55;2.80;;;;;;;8.90;100.00;100662.41;5032102;28;20705;-73
2023/12/26 07:19:11;;;;;;;12.95;2.55;;;;;;;8.91;100.00;100658.50;5035766;28;20053;-73
2023/12/26 07:21:36;;;;;;;17.85;3.08;;;;;;;8.90;100.00;100659.63;5034561;28;20034;-73
2023/12/26 07:24:02;;;;;;;21.52;3.17;;;;;;;8.87;100.00;100663.78;5035445;28;20501;-73
2023/12/26 07:26:27;;;;;;;14.32;3.00;;;;;;;8.92;100.00;100669.31;5035789;28;20025;-73
2023/12/26 07:28:52;;;;;;;16.80;2.78;;;;;;;8.90;100.00;100670.72;5033534;28;20033;-73
2023/12/26 07:31:19;;;;;;;10.20;2.38;;;;;;;8.90;100.00;100677.06;5035677;28;20033;-73
2023/12/26 07:33:46;;;;;;;17.65;3.25;;;;;;;8.90;100.00;100668.75;5015628;28;20037;-73
2023/12/26 07:36:12;;;;;;;12.73;2.53;;;;;;;8.92;100.00;100676.81;5035739;28;20076;-73
2023/12/26 07:38:37;;;;;;;12.52;2.58;;;;;;;8.91;100.00;100672.34;5033915;28;20040;-73
2023/12/26 07:41:03;;;;;;;11.65;2.65;;;;;;;8.92;100.00;100674.03;5034285;28;20080;-73
2023/12/26 07:43:29;;;;;;;14.50;2.20;;;;;;;8.92;100.00;100685.13;5033799;28;20026;-73
2023/12/26 07:45:55;;;;;;;16.98;2.95;;;;;;;8.93;100.00;100695.06;5034275;28;20037;-73
2023/12/26 07:48:21;;;;;;;17.73;2.90;;;;;;;8.94;100.00;100707.81;5035495;28;20084;-73
2023/12/26 07:50:46;;;;;;;10.57;2.30;;;;;;;8.93;100.00;100703.38;5035543;28;20029;-73
2023/12/26 07:53:12;;;;;;;12.80;2.20;;;;;;;8.94;100.00;100710.56;5035442;28;20044;-73
2023/12/26 07:55:37;;;;;;;22.52;2.70;;;;;;;8.92;100.00;100708.09;5034417;28;20029;-73
2023/12/26 07:58:03;;;;;;;16.02;2.75;;;;;;;8.95;100.00;100703.94;5032936;28;20033;-73
2023/12/26 08:00:29;;;;;;;16.90;2.63;;;;;;;8.94;100.00;100705.03;5032622;28;20561;-73
2023/12/26 08:02:54;;;;;;;11.35;2.42;;;;;;;8.94;100.00;100708.66;5035246;28;20521;-73
2023/12/26 08:05:20;;;;;;;15.90;3.15;;;;;;;8.97;100.00;100698.97;5037397;28;20112;-73
2023/12/26 08:07:45;;;;;;;12.35;3.10;;;;;;;8.97;100.00;100706.41;5039308;28;20037;-73
2023/12/26 08:10:11;;;;;;;14.70;2.97;;;;;;;8.96;100.00;100708.38;5034953;28;20030;-73
2023/12/26 08:12:36;;;;;;;12.02;2.60;;;;;;;8.97;100.00;100707.28;5034073;28;20029;-73
2023/12/26 08:15:02;;;;;;;17.10;2.72;;;;;;;8.99;100.00;100713.34;5034793;28;20052;-73
2023/12/26 08:17:27;;;;;;;19.33;2.88;;;;;;;8.99;100.00;100721.66;5031944;28;20112;-73
2023/12/26 08:19:53;;;;;;;15.70;2.85;;;;;;;9.03;100.00;100731.09;5034950;28;20057;-73
2023/12/26 08:22:18;;;;;;;14.80;2.67;;;;;;;9.03;100.00;100725.56;5028567;28;20563;-73
2023/12/26 08:24:44;;;;;;;8.32;2.40;;;;;;;9.03;100.00;100733.84;5031626;28;20040;-73
2023/12/26 08:27:09;;;;;;;14.02;2.90;;;;;;;9.06;100.00;100732.47;5017256;28;20036;-73
2023/12/26 08:29:35;;;;;;;15.48;2.90;;;;;;;9.07;100.00;100740.50;5025595;28;20038;-74
2023/12/26 08:32:00;;;;;;;14.30;3.03;;;;;;;9.09;100.00;100741.06;5035221;28;20041;-73
2023/12/26 08:34:26;;;;;;;12.45;2.97;;;;;;;9.09;100.00;100746.59;5034970;28;20033;-73
2023/12/26 08:36:51;;;;;;;14.65;2.85;;;;;;;9.12;100.00;100745.22;5034818;28;20406;-73
2023/12/26 08:39:17;;;;;;;12.43;2.63;;;;;;;9.15;100.00;100751.00;5034698;28;20061;-73
2023/12/26 08:41:43;;;;;;;17.45;2.65;;;;;;;9.17;100.00;100753.53;5036809;28;20030;-73
2023/12/26 08:44:09;;;;;;;9.82;2.33;;;;;;;9.20;100.00;100752.13;5038753;28;20077;-73
2023/12/26 08:46:34;;;;;;;10.65;2.85;;;;;;;9.24;100.00;100756.00;5038713;28;20033;-73
2023/12/26 08:49:00;;;;;;;11.20;2.50;;;;;;;9.26;100.00;100759.31;5038878;28;20033;-73
2023/12/26 08:51:25;;;;;;;10.20;2.97;;;;;;;9.28;100.00;100760.72;5037405;28;20029;-73
2023/12/26 08:53:52;;;;;;;17.42;2.38;;;;;;;9.30;100.00;100752.09;5038348;28;20033;-73
2023/12/26 08:56:17;;;;;;;17.80;2.55;;;;;;;9.34;100.00;100750.44;5038479;28;20367;-73
2023/12/26 08:58:42;;;;;;;11.43;2.75;;;;;;;9.36;100.00;100751.84;5038273;28;20037;-73
2023/12/26 09:01:10;;;;;;;10.50;2.30;;;;;;;9.39;100.00;100750.44;5038250;28;20033;-73
2023/12/26 09:03:36;;;;;;;13.25;2.25;;;;;;;9.44;100.00;100744.88;5038374;28;20037;-73
2023/12/26 09:06:01;;;;;;;12.35;2.00;;;;;;;9.48;100.00;100747.94;5040577;28;20033;-73
2023/12/26 09:08:27;;;;;;;11.85;2.13;;;;;;;9.51;100.00;100764.81;5039216;28;20386;-73
2023/12/26 09:10:56;;;;;;;12.13;2.15;;;;;;;9.58;100.00;100781.16;5033768;28;20033;-73
2023/12/26 09:13:21;;;;;;;11.65;2.05;;;;;;;9.62;100.00;100785.88;5004188;28;20036;-73
2023/12/26 09:15:48;;;;;;;9.45;1.92;;;;;;;9.65;100.00;100781.69;5016368;28;20029;-73
2023/12/26 09:18:15;;;;;;;10.48;2.20;;;;;;;9.66;100.00;100788.91;5031628;28;20492;-73
2023/12/26 09:20:41;;;;;;;10.85;2.03;;;;;;;9.71;100.00;100802.75;5043803;28;20050;-73
2023/12/26 09:23:06;;;;;;;13.43;2.50;;;;;;;9.76;100.00;100813.84;5032417;28;20030;-73
2023/12/26 09:25:31;;;;;;;13.23;2.35;;;;;;;9.78;100.00;100813.56;5037808;28;20390;-73
2023/12/26 09:27:57;;;;;;;12.85;2.45;;;;;;;9.79;100.00;100804.97;5042845;28;20030;-73
2023/12/26 09:30:23;;;;;;;11.38;2.20;;;;;;;9.82;100.00;100811.88;5037937;28;20386;-74
2023/12/26 09:32:48;;;;;;;14.02;2.40;;;;;;;9.84;100.00;100821.59;5037852;28;20085;-74
2023/12/26 09:35:14;;;;;;;11.40;3.13;;;;;;;9.89;100.00;100819.91;5040136;28;20060;-73
2023/12/26 09:37:40;;;;;;;18.90;2.80;;;;;;;9.92;100.00;100814.63;5029124;28;20087;-74
2023/12/26 09:40:07;;;;;;;13.93;3.03;;;;;;;9.96;100.00;100810.16;5037243;28;20061;-73
2023/12/26 09:42:32;;;;;;;12.73;2.53;;;;;;;9.99;100.00;100817.09;5035708;28;20026;-73
2023/12/26 09:44:58;;;;;;;12.57;2.28;;;;;;;10.00;100.00;100830.72;5016674;28;20022;-74
2023/12/26 09:47:23;;;;;;;12.52;2.60;;;;;;;10.02;100.00;100834.00;5036554;28;20083;-73
2023/12/26 09:49:50;;;;;;;17.38;2.63;;;;;;;10.03;100.00;100838.47;5036228;28;20034;-73
2023/12/26 09:52:15;;;;;;;10.25;2.50;;;;;;;10.07;100.00;100842.31;5017328;28;20116;-73
2023/12/26 09:54:43;;;;;;;13.88;2.40;;;;;;;10.11;100.00;100847.31;5035961;28;20474;-73
2023/12/26 09:57:08;;;;;;;9.60;2.20;;;;;;;10.13;100.00;100851.47;5036114;28;20038;-73
2023/12/26 09:59:35;;;;;;;16.77;2.95;;;;;;;10.16;100.00;100850.88;5037065;28;20034;-73
2023/12/26 10:02:01;;;;;;;17.42;2.67;;;;;;;10.18;100.00;100845.91;5036069;28;20033;-73
2023/12/26 10:04:26;;;;;;;18.40;3.25;;;;;;;10.25;100.00;100857.53;5037302;28;20033;-73
2023/12/26 10:06:52;;;;;;;8.98;2.38;;;;;;;10.28;100.00;100862.56;5040336;28;20025;-73
2023/12/26 10:09:19;;;;;;;16.60;2.97;;;;;;;10.32;100.00;100854.47;5037749;28;20025;-73
2023/12/26 10:11:45;;;;;;;11.50;2.20;;;;;;;10.37;100.00;100850.88;5027934;28;20022;-73
2023/12/26 10:14:11;;;;;;;13.30;2.40;;;;;;;10.37;100.00;100843.34;5035675;28;20091;-73
2023/12/26 10:16:36;;;;;;;18.60;2.90;;;;;;;10.42;100.00;100839.72;5033217;28;20025;-73
2023/12/26 10:19:02;;;;;;;14.45;2.85;;;;;;;10.45;100.00;100876.09;5035861;28;20061;-73
2023/12/26 10:21:50;;;;;;;18.70;2.85;;;;;;;10.48;100.00;100881.06;5036350;28;20589;-73
2023/12/26 10:24:32;;;;;;;14.25;2.58;;;;;;;10.55;100.00;100863.25;5036405;28;20030;-73
2023/12/26 10:27:12;;;;;;;16.92;2.78;;;;;;;10.56;100.00;100857.44;5043996;28;20025;-73
2023/12/26 10:30:02;;;;;;;11.60;2.97;;;;;;;10.59;100.00;100858.81;5030553;28;20463;-73
2023/12/26 10:32:59;;;;;;;16.55;3.00;;;;;;;10.62;100.00;100872.13;5027688;28;20489;-73
2023/12/26 10:35:50;;;;;;;13.50;3.45;;;;;;;10.68;100.00;100868.19;5030911;28;20033;-73
2023/12/26 10:38:25;;;;;;;20.63;3.67;;;;;;;10.69;100.00;100867.91;5023372;28;20064;-73
2023/12/26 10:40:50;;;;;;;11.85;3.00;;;;;;;10.71;100.00;100875.97;5027388;28;20040;-73
2023/12/26 10:43:21;;;;;;;19.30;3.10;;;;;;;10.75;100.00;100865.91;5024850;28;20527;-73
2023/12/26 10:45:53;;;;;;;13.40;2.78;;;;;;;10.75;100.00;100865.91;5012971;28;20516;-73
2023/12/26 10:48:19;;;;;;;17.42;3.72;;;;;;;10.78;100.00;100873.72;5025716;28;20045;-73
2023/12/26 10:50:52;;;;;;;17.63;3.47;;;;;;;10.84;100.00;100874.50;5026367;28;20494;-73
2023/12/26 10:53:19;;;;;;;;;;;;;;;10.86;100.00;100877.81;5021941;28;20059;-73
2023/12/26 10:55:45;;;;;;;15.00;2.83;;;;;;;10.86;100.00;100869.47;5026570;28;20374;-73
2023/12/26 10:58:29;;;;;;;19.88;3.75;;;;;;;10.89;100.00;100869.75;5027797;28;20252;-73
2023/12/26 11:01:13;;;;;;;17.55;3.53;;;;;;;10.91;100.00;100864.72;5022868;28;20040;-74
2023/12/26 13:52:25;;;;;;;13.55;3.20;;;;;;;11.38;100.00;100799.28;5031679;28;20375;-73
2023/12/26 13:55:27;;;;;;;10.32;3.10;;;;;;;11.38;100.00;100792.91;5029434;28;20482;-73
2023/12/26 13:58:30;;;;;;;7.30;2.80;;;;;;;11.35;100.00;100807.41;5029347;28;20048;-73
2023/12/26 14:01:33;;;;;;;13.38;3.30;;;;;;;11.37;100.00;100805.16;5027613;28;20587;-73
2023/12/26 14:04:36;;;;;;;7.45;3.03;;;;;;;11.35;100.00;100797.09;5030173;28;20060;-73